createdAt,value
2017-07-22T00:00:44.483Z,75.04
2017-07-22T00:01:45.719Z,75.23
2017-07-22T00:02:47.071Z,75.65
2017-07-22T00:03:48.310Z,75.65
2017-07-22T00:04:49.553Z,75.71
2017-07-22T00:05:50.787Z,75.65
2017-07-22T00:06:52.038Z,75.32
2017-07-22T00:07:53.271Z,75.71
2017-07-22T00:08:54.505Z,75.9
2017-07-22T00:09:55.736Z,75.9
2017-07-22T00:10:56.986Z,76
2017-07-22T00:11:58.253Z,76
2017-07-22T00:12:59.477Z,76.09
2017-07-22T00:14:00.716Z,76.29
2017-07-22T00:15:01.950Z,76.19
2017-07-22T00:16:03.219Z,76.48
2017-07-22T00:17:04.477Z,76.48
2017-07-22T00:18:05.956Z,76.39
2017-07-22T00:19:07.172Z,76.57
2017-07-22T00:20:08.422Z,76.86
2017-07-22T00:21:09.741Z,76.67
2017-07-22T00:22:11.017Z,76.86
2017-07-22T00:23:12.250Z,76.86
2017-07-22T00:24:13.501Z,77.06
2017-07-22T00:25:14.752Z,77.15
2017-07-22T00:26:15.989Z,77.06
2017-07-22T00:27:17.310Z,77.06
2017-07-22T00:28:18.549Z,76.86
2017-07-22T00:29:19.798Z,76.77
2017-07-22T00:30:21.070Z,77.44
2017-07-22T00:31:22.324Z,77.15
2017-07-22T00:32:23.583Z,77.25
2017-07-22T00:33:24.812Z,77.34
2017-07-22T00:34:26.051Z,77.34
2017-07-22T00:35:27.344Z,77.25
2017-07-22T00:36:28.651Z,77.73
2017-07-22T00:37:29.896Z,77.63
2017-07-22T00:38:31.135Z,77.92
2017-07-22T00:39:32.374Z,77.83
2017-07-22T00:40:33.635Z,77.53
2017-07-22T00:41:34.887Z,78.11
2017-07-22T00:42:36.124Z,77.63
2017-07-22T00:43:37.403Z,78.3
2017-07-22T00:44:38.706Z,78.11
2017-07-22T00:45:39.934Z,78.11
2017-07-22T00:46:41.322Z,78.11
2017-07-22T00:47:42.576Z,78.11
2017-07-22T00:48:43.867Z,78.11
2017-07-22T00:49:45.148Z,78.11
2017-07-22T00:50:46.393Z,78.3
2017-07-22T00:51:47.626Z,78.11
2017-07-22T00:52:48.864Z,78.3
2017-07-22T00:53:50.101Z,78.4
2017-07-22T00:54:51.346Z,78.21
2017-07-22T00:55:52.592Z,78.21
2017-07-22T00:56:53.833Z,78.5
2017-07-22T00:57:55.072Z,78.3
2017-07-22T00:58:56.310Z,78.69
2017-07-22T00:59:57.539Z,78.69
2017-07-22T01:00:59.004Z,78.78
2017-07-22T01:02:00.572Z,79.07
2017-07-22T01:03:01.696Z,78.69
2017-07-22T01:04:02.930Z,78.88
2017-07-22T01:05:04.174Z,78.88
2017-07-22T01:06:05.444Z,79.27
2017-07-22T01:07:06.704Z,79.27
2017-07-22T01:08:07.937Z,79.17
2017-07-22T01:09:09.186Z,79.07
2017-07-22T01:10:10.425Z,79.55
2017-07-22T01:11:11.680Z,79.17
2017-07-22T01:12:12.983Z,78.98
2017-07-22T01:13:14.208Z,79.17
2017-07-22T01:14:15.450Z,79.17
2017-07-22T01:15:16.682Z,79.17
2017-07-22T01:16:17.923Z,79.07
2017-07-22T01:17:19.160Z,79.46
2017-07-22T01:18:20.391Z,79.36
2017-07-22T01:19:21.636Z,79.84
2017-07-22T01:20:22.895Z,79.94
2017-07-22T01:21:24.136Z,79.65
2017-07-22T01:22:25.409Z,79.55
2017-07-22T01:23:26.645Z,79.8
2017-07-22T01:24:27.892Z,79.94
2017-07-22T01:25:29.151Z,79.84
2017-07-22T01:26:30.386Z,80.04
2017-07-22T01:27:31.726Z,79.75
2017-07-22T01:28:32.968Z,79.52
2017-07-22T01:29:34.211Z,79.61
2017-07-22T01:30:35.450Z,80.04
2017-07-22T01:31:36.689Z,79.94
2017-07-22T01:32:37.998Z,79.75
2017-07-22T01:33:39.281Z,80.04
2017-07-22T01:34:40.533Z,79.65
2017-07-22T01:35:41.751Z,79.94
2017-07-22T01:36:42.991Z,79.75
2017-07-22T01:37:44.231Z,79.55
2017-07-22T01:38:45.468Z,79.71
2017-07-22T01:39:46.795Z,80.13
2017-07-22T01:40:48.024Z,79.71
2017-07-22T01:41:49.347Z,80.42
2017-07-22T01:42:50.588Z,80.19
2017-07-22T01:43:51.825Z,80.22
2017-07-22T01:44:53.151Z,80.22
2017-07-22T01:45:54.383Z,80.09
2017-07-22T01:46:55.623Z,80.04
2017-07-22T01:47:56.909Z,80.22
2017-07-22T01:48:58.150Z,80.47
2017-07-22T01:49:59.411Z,80.57
2017-07-22T01:51:00.648Z,80.61
2017-07-22T01:52:01.940Z,80.66
2017-07-22T01:53:03.217Z,80.8
2017-07-22T01:54:04.459Z,80.9
2017-07-22T01:55:05.691Z,80.99
2017-07-22T01:56:06.931Z,80.71
2017-07-22T01:57:08.178Z,80.42
2017-07-22T01:58:09.425Z,80.51
2017-07-22T01:59:10.682Z,80.71
2017-07-22T02:00:11.918Z,80.71
2017-07-22T02:01:13.202Z,80.9
2017-07-22T02:02:14.434Z,80.9
2017-07-22T02:03:15.705Z,80.51
2017-07-22T02:04:17.126Z,80.71
2017-07-22T02:05:18.301Z,80.8
2017-07-22T02:06:19.542Z,80.42
2017-07-22T02:07:20.793Z,80.71
2017-07-22T02:08:22.024Z,80.51
2017-07-22T02:09:23.261Z,80.51
2017-07-22T02:10:24.506Z,80.51
2017-07-22T02:11:25.753Z,80.61
2017-07-22T02:12:27.070Z,80.32
2017-07-22T02:13:28.323Z,80.51
2017-07-22T02:14:29.565Z,80.51
2017-07-22T02:15:30.797Z,80.32
2017-07-22T02:16:32.034Z,80.71
2017-07-22T02:17:33.290Z,80.32
2017-07-22T02:18:34.528Z,80.71
2017-07-22T02:19:35.769Z,80.9
2017-07-22T02:20:37.009Z,80.71
2017-07-22T02:21:38.257Z,80.8
2017-07-22T02:22:39.562Z,81.09
2017-07-22T02:23:40.798Z,81.09
2017-07-22T02:24:42.087Z,80.71
2017-07-22T02:25:43.335Z,80.99
2017-07-22T02:26:44.647Z,80.51
2017-07-22T02:27:45.881Z,80.8
2017-07-22T02:28:47.152Z,80.71
2017-07-22T02:29:48.393Z,80.99
2017-07-22T02:30:49.660Z,80.71
2017-07-22T02:31:51.046Z,80.42
2017-07-22T02:32:52.286Z,80.8
2017-07-22T02:33:53.531Z,80.51
2017-07-22T02:34:54.774Z,80.71
2017-07-22T02:35:56.047Z,80.32
2017-07-22T02:36:57.417Z,80.61
2017-07-22T02:37:58.690Z,80.51
2017-07-22T02:38:59.924Z,80.61
2017-07-22T02:40:01.165Z,80.07
2017-07-22T02:41:02.399Z,80.04
2017-07-22T02:42:03.719Z,79.6
2017-07-22T02:43:04.963Z,79.88
2017-07-22T02:44:06.202Z,80.27
2017-07-22T02:45:07.438Z,80.27
2017-07-22T02:46:08.674Z,79.69
2017-07-22T02:47:09.907Z,79.88
2017-07-22T02:48:11.290Z,79.79
2017-07-22T02:49:12.533Z,79.5
2017-07-22T02:50:13.772Z,79.88
2017-07-22T02:51:15.030Z,79.69
2017-07-22T02:52:16.248Z,79.5
2017-07-22T02:53:17.520Z,79.69
2017-07-22T02:54:18.747Z,80.55
2017-07-22T02:55:20.111Z,81.81
2017-07-22T02:56:21.328Z,82.86
2017-07-22T02:57:22.839Z,84.59
2017-07-22T02:58:24.072Z,86.38
2017-07-22T02:59:25.313Z,88.87
2017-07-22T03:00:26.553Z,89.64
2017-07-22T03:01:27.801Z,92.1
2017-07-22T03:02:29.150Z,94.69
2017-07-22T03:03:30.433Z,96.61
2017-07-22T03:04:31.667Z,99.3
2017-07-22T03:05:32.906Z,99.99
2017-07-22T03:06:34.145Z,99.99
2017-07-22T03:07:35.468Z,99.99
2017-07-22T03:08:36.703Z,99.99
2017-07-22T03:09:37.946Z,99.99
2017-07-22T03:10:39.183Z,99.99
2017-07-22T03:11:40.410Z,99.99
2017-07-22T03:12:41.653Z,99.99
2017-07-22T03:13:43.105Z,99.99
2017-07-22T03:14:44.351Z,99.99
2017-07-22T03:15:45.582Z,99.99
2017-07-22T03:16:46.825Z,99.99
2017-07-22T03:17:48.071Z,99.99
2017-07-22T03:18:49.297Z,99.99
2017-07-22T03:19:50.534Z,99.99
2017-07-22T03:20:51.784Z,99.99
2017-07-22T03:21:53.034Z,99.99
2017-07-22T03:22:54.279Z,99.99
2017-07-22T03:23:55.511Z,99.99
2017-07-22T03:24:56.748Z,99.99
2017-07-22T03:25:57.988Z,99.99
2017-07-22T03:26:59.264Z,99.99
2017-07-22T03:28:00.578Z,99.99
2017-07-22T03:29:01.813Z,99.99
2017-07-22T03:30:03.066Z,99.99
2017-07-22T03:31:04.305Z,99.99
2017-07-22T03:32:05.556Z,99.99
2017-07-22T03:33:06.845Z,99.99
2017-07-22T03:34:08.114Z,99.99
2017-07-22T03:35:09.401Z,99.99
2017-07-22T03:36:10.636Z,99.99
2017-07-22T03:37:11.888Z,99.99
2017-07-22T03:38:13.124Z,99.99
2017-07-22T03:39:14.365Z,99.99
2017-07-22T03:40:15.656Z,99.99
2017-07-22T03:41:17.011Z,99.99
2017-07-22T03:42:18.322Z,99.99
2017-07-22T03:43:19.559Z,99.99
2017-07-22T03:44:20.800Z,99.99
2017-07-22T03:45:22.043Z,99.99
2017-07-22T03:46:23.325Z,99.99
2017-07-22T03:47:24.558Z,99.99
2017-07-22T03:48:25.790Z,99.99
2017-07-22T03:49:27.026Z,99.99
2017-07-22T03:50:28.282Z,99.99
2017-07-22T03:51:29.522Z,99.99
2017-07-22T03:52:30.772Z,99.99
2017-07-22T03:53:32.110Z,99.99
2017-07-22T03:54:33.440Z,99.99
2017-07-22T03:55:34.688Z,99.99
2017-07-22T03:56:35.919Z,99.99
2017-07-22T03:57:37.207Z,99.99
2017-07-22T03:58:38.427Z,99.99
2017-07-22T03:59:39.676Z,99.99
2017-07-22T04:00:41.015Z,99.99
2017-07-22T04:01:42.256Z,99.99
2017-07-22T04:02:43.545Z,99.99
2017-07-22T04:03:44.794Z,99.99
2017-07-22T04:04:46.063Z,99.99
2017-07-22T04:05:47.348Z,99.99
2017-07-22T04:06:48.702Z,99.99
2017-07-22T04:07:49.951Z,99.99
2017-07-22T04:08:51.198Z,99.99
2017-07-22T04:09:52.430Z,99.99
2017-07-22T04:10:53.673Z,99.99
2017-07-22T04:11:54.921Z,99.99
2017-07-22T04:12:56.147Z,99.99
2017-07-22T04:13:57.384Z,99.99
2017-07-22T04:14:58.626Z,99.99
2017-07-22T04:15:59.862Z,99.99
2017-07-22T04:17:01.103Z,99.99
2017-07-22T04:18:02.343Z,99.99
2017-07-22T04:19:03.600Z,99.99
2017-07-22T04:20:04.839Z,99.99
2017-07-22T04:21:06.081Z,99.99
2017-07-22T04:22:07.315Z,99.99
2017-07-22T04:23:08.555Z,99.99
2017-07-22T04:24:09.878Z,99.99
2017-07-22T04:25:11.124Z,99.99
2017-07-22T04:26:12.379Z,99.99
2017-07-22T04:27:13.620Z,99.99
2017-07-22T04:28:14.861Z,99.99
2017-07-22T04:29:16.098Z,99.99
2017-07-22T04:30:17.340Z,99.99
2017-07-22T04:31:18.586Z,99.99
2017-07-22T04:32:19.825Z,99.99
2017-07-22T04:33:21.084Z,99.99
2017-07-22T04:34:22.324Z,99.99
2017-07-22T04:35:23.566Z,99.99
2017-07-22T04:36:24.820Z,99.99
2017-07-22T04:37:26.161Z,99.99
2017-07-22T04:38:27.409Z,99.99
2017-07-22T04:39:28.713Z,99.99
2017-07-22T04:40:29.953Z,99.99
2017-07-22T04:41:31.194Z,99.99
2017-07-22T04:42:32.454Z,99.99
2017-07-22T04:43:33.808Z,99.99
2017-07-22T04:44:35.058Z,99.99
2017-07-22T04:45:36.309Z,99.99
2017-07-22T04:46:37.541Z,99.99
2017-07-22T04:47:38.782Z,99.99
2017-07-22T04:48:40.020Z,99.99
2017-07-22T04:49:41.380Z,99.99
2017-07-22T04:50:42.710Z,99.99
2017-07-22T04:51:43.852Z,99.99
2017-07-22T04:52:45.099Z,99.99
2017-07-22T04:53:46.335Z,99.99
2017-07-22T04:54:47.612Z,99.99
2017-07-22T04:55:48.859Z,99.99
2017-07-22T04:56:50.102Z,99.99
2017-07-22T04:57:51.433Z,99.99
2017-07-22T04:58:52.699Z,99.99
2017-07-22T04:59:53.943Z,99.99
2017-07-22T05:00:55.179Z,99.99
2017-07-22T05:01:56.415Z,99.99
2017-07-22T05:02:57.708Z,99.99
2017-07-22T05:03:59.031Z,99.99
2017-07-22T05:05:00.270Z,99.99
2017-07-22T05:06:01.496Z,99.99
2017-07-22T05:07:02.733Z,99.99
2017-07-22T05:08:03.971Z,99.99
2017-07-22T05:09:05.210Z,99.99
2017-07-22T05:10:06.485Z,99.99
2017-07-22T05:11:07.711Z,99.99
2017-07-22T05:12:08.949Z,99.99
2017-07-22T05:13:10.189Z,99.99
2017-07-22T05:14:11.437Z,99.99
2017-07-22T05:15:12.670Z,99.99
2017-07-22T05:16:13.913Z,99.99
2017-07-22T05:17:15.318Z,99.99
2017-07-22T05:18:16.550Z,99.99
2017-07-22T05:19:17.792Z,99.99
2017-07-22T05:20:19.031Z,99.99
2017-07-22T05:21:20.284Z,99.99
2017-07-22T05:22:21.517Z,99.99
2017-07-22T05:23:22.812Z,99.99
2017-07-22T05:24:24.046Z,99.99
2017-07-22T05:25:25.274Z,99.99
2017-07-22T05:26:26.513Z,99.99
2017-07-22T05:27:27.804Z,99.99
2017-07-22T05:28:29.068Z,99.99
2017-07-22T05:29:30.291Z,99.99
2017-07-22T05:30:31.594Z,99.99
2017-07-22T05:31:32.832Z,99.99
2017-07-22T05:32:34.080Z,99.99
2017-07-22T05:33:35.321Z,99.99
2017-07-22T05:34:36.560Z,99.99
2017-07-22T05:35:37.796Z,99.99
2017-07-22T05:36:39.197Z,99.99
2017-07-22T05:37:40.439Z,99.99
2017-07-22T05:38:41.674Z,99.99
2017-07-22T05:39:42.917Z,99.99
2017-07-22T05:40:44.148Z,99.99
2017-07-22T05:41:45.363Z,99.99
2017-07-22T05:42:46.619Z,99.99
2017-07-22T05:43:47.839Z,99.99
2017-07-22T05:44:49.066Z,99.99
2017-07-22T05:45:50.978Z,99.99
2017-07-22T05:46:53.148Z,99.99
2017-07-22T05:47:54.374Z,99.99
2017-07-22T05:48:55.605Z,99.99
2017-07-22T05:49:56.887Z,99.99
2017-07-22T05:50:58.112Z,99.99
2017-07-22T05:51:59.435Z,99.99
2017-07-22T05:53:00.650Z,99.99
2017-07-22T05:54:01.909Z,99.99
2017-07-22T05:55:03.149Z,99.99
2017-07-22T05:56:04.396Z,99.99
2017-07-22T05:57:05.616Z,99.99
2017-07-22T05:58:06.871Z,99.99
2017-07-22T05:59:08.110Z,99.99
2017-07-22T06:00:09.343Z,99.99
2017-07-22T06:01:10.587Z,99.99
2017-07-22T06:02:11.847Z,99.99
2017-07-22T06:03:13.102Z,99.99
2017-07-22T06:04:14.340Z,99.99
2017-07-22T06:05:15.579Z,99.99
2017-07-22T06:06:16.836Z,99.99
2017-07-22T06:07:18.061Z,99.99
2017-07-22T06:08:19.310Z,99.99
2017-07-22T06:09:20.553Z,99.99
2017-07-22T06:10:21.861Z,99.99
2017-07-22T06:11:23.227Z,99.99
2017-07-22T06:12:24.462Z,99.99
2017-07-22T06:13:25.712Z,99.99
2017-07-22T06:14:26.953Z,99.99
2017-07-22T06:15:28.300Z,99.99
2017-07-22T06:16:29.542Z,99.99
2017-07-22T06:17:30.831Z,99.99
2017-07-22T06:18:32.084Z,99.99
2017-07-22T06:19:33.327Z,99.99
2017-07-22T06:20:34.553Z,99.99
2017-07-22T06:21:35.781Z,99.99
2017-07-22T06:22:37.084Z,99.99
2017-07-22T06:23:38.449Z,99.99
2017-07-22T06:24:39.572Z,99.99
2017-07-22T06:25:40.809Z,99.99
2017-07-22T06:26:42.048Z,99.99
2017-07-22T06:27:43.299Z,99.99
2017-07-22T06:28:44.546Z,99.99
2017-07-22T06:29:45.866Z,99.99
2017-07-22T06:30:47.112Z,99.99
2017-07-22T06:31:48.344Z,99.99
2017-07-22T06:32:49.594Z,99.99
2017-07-22T06:33:50.850Z,99.99
2017-07-22T06:34:52.140Z,99.99
2017-07-22T06:35:53.389Z,99.99
2017-07-22T06:36:54.620Z,99.99
2017-07-22T06:37:55.859Z,99.99
2017-07-22T06:38:57.102Z,99.99
2017-07-22T06:39:58.334Z,99.99
2017-07-22T06:40:59.589Z,99.99
2017-07-22T06:42:00.909Z,99.99
2017-07-22T06:43:02.147Z,99.99
2017-07-22T06:44:03.386Z,99.99
2017-07-22T06:45:04.627Z,99.99
2017-07-22T06:46:05.862Z,99.99
2017-07-22T06:47:07.103Z,99.99
2017-07-22T06:48:08.343Z,99.99
2017-07-22T06:49:09.589Z,99.99
2017-07-22T06:50:10.875Z,99.99
2017-07-22T06:51:12.119Z,99.99
2017-07-22T06:52:13.368Z,99.99
2017-07-22T06:53:14.622Z,99.99
2017-07-22T06:54:15.932Z,94.12
2017-07-22T06:55:17.294Z,77.84
2017-07-22T06:56:18.594Z,76.55
2017-07-22T06:57:19.848Z,74.06
2017-07-22T06:58:21.097Z,70.3
2017-07-22T06:59:22.433Z,69.56
2017-07-22T07:00:23.730Z,63.22
2017-07-22T07:01:25.049Z,65.11
2017-07-22T07:02:26.304Z,63.57
2017-07-22T07:03:27.547Z,62.15
2017-07-22T07:04:28.806Z,59.41
2017-07-22T07:05:30.076Z,55.57
2017-07-22T07:06:31.351Z,55.66
2017-07-22T07:07:32.606Z,53.81
2017-07-22T07:08:33.842Z,54.49
2017-07-22T07:09:35.089Z,58.13
2017-07-22T07:10:36.336Z,54.64
2017-07-22T07:11:37.653Z,53.74
2017-07-22T07:12:38.900Z,53.76
2017-07-22T07:13:40.178Z,49.6
2017-07-22T07:14:41.440Z,53.03
2017-07-22T07:15:42.734Z,50.68
2017-07-22T07:16:43.980Z,51.22
2017-07-22T07:17:45.241Z,49.36
2017-07-22T07:18:46.498Z,46.84
2017-07-22T07:19:47.773Z,48.13
2017-07-22T07:20:49.005Z,47.89
2017-07-22T07:21:50.251Z,45.73
2017-07-22T07:22:51.507Z,44.47
2017-07-22T07:23:52.759Z,42.04
2017-07-22T07:24:54.022Z,41.94
2017-07-22T07:25:55.272Z,42.86
2017-07-22T07:26:56.600Z,44.04
2017-07-22T07:27:57.832Z,41.43
2017-07-22T07:28:59.080Z,39.68
2017-07-22T07:30:00.330Z,39.25
2017-07-22T07:31:01.586Z,39.72
2017-07-22T07:32:02.869Z,40.33
2017-07-22T07:33:04.083Z,39.64
2017-07-22T07:34:05.435Z,38.9
2017-07-22T07:35:06.683Z,38.4
2017-07-22T07:36:07.951Z,38.03
2017-07-22T07:37:09.175Z,36.46
2017-07-22T07:38:10.420Z,37.05
2017-07-22T07:39:11.677Z,37.03
2017-07-22T07:40:12.920Z,37.15
2017-07-22T07:41:14.168Z,36.18
2017-07-22T07:42:15.416Z,35.82
2017-07-22T07:43:16.673Z,34.95
2017-07-22T07:44:17.932Z,34.1
2017-07-22T07:45:19.181Z,35.11
2017-07-22T07:46:20.500Z,34.66
2017-07-22T07:47:21.738Z,34
2017-07-22T07:48:22.990Z,33.13
2017-07-22T07:49:24.239Z,32.47
2017-07-22T07:50:25.496Z,33.39
2017-07-22T07:51:26.744Z,33.51
2017-07-22T07:52:27.992Z,33.53
2017-07-22T07:53:29.247Z,32.75
2017-07-22T07:54:30.493Z,31.4
2017-07-22T07:55:31.773Z,30.52
2017-07-22T07:56:33.028Z,30.23
2017-07-22T07:57:34.273Z,30.23
2017-07-22T07:58:35.633Z,30.4
2017-07-22T07:59:36.882Z,30.19
2017-07-22T08:00:38.137Z,30.61
2017-07-22T08:01:39.403Z,29.65
2017-07-22T08:02:40.646Z,28.56
2017-07-22T08:03:41.905Z,28.76
2017-07-22T08:04:43.175Z,28.96
2017-07-22T08:05:44.506Z,28.79
2017-07-22T08:06:45.791Z,29.38
2017-07-22T08:07:47.039Z,28.17
2017-07-22T08:08:48.280Z,28.86
2017-07-22T08:09:49.588Z,29.07
2017-07-22T08:10:50.899Z,28.85
2017-07-22T08:11:52.173Z,28.06
2017-07-22T08:12:53.417Z,29.34
2017-07-22T08:13:54.658Z,29.03
2017-07-22T08:14:55.910Z,29.64
2017-07-22T08:15:57.270Z,29.34
2017-07-22T08:16:58.526Z,28.58
2017-07-22T08:17:59.879Z,28.58
2017-07-22T08:19:01.139Z,28.51
2017-07-22T08:20:02.402Z,28.13
2017-07-22T08:21:03.675Z,27.34
2017-07-22T08:22:05.057Z,27.44
2017-07-22T08:23:06.300Z,27.26
2017-07-22T08:24:07.590Z,26.67
2017-07-22T08:25:08.831Z,26.09
2017-07-22T08:26:10.081Z,25.9
2017-07-22T08:27:11.441Z,26.4
2017-07-22T08:28:12.716Z,25.81
2017-07-22T08:29:13.953Z,25.43
2017-07-22T08:30:15.216Z,24.51
2017-07-22T08:31:16.465Z,25.29
2017-07-22T08:32:17.744Z,25.21
2017-07-22T08:33:19.013Z,25.2
2017-07-22T08:34:20.266Z,25.21
2017-07-22T08:35:21.678Z,25.42
2017-07-22T08:36:22.924Z,24.34
2017-07-22T08:37:24.181Z,24.74
2017-07-22T08:38:25.440Z,22.86
2017-07-22T08:39:26.687Z,24.02
2017-07-22T08:40:27.943Z,24.37
2017-07-22T08:41:29.249Z,25.45
2017-07-22T08:42:30.494Z,26.12
2017-07-22T08:43:31.829Z,27.58
2017-07-22T08:44:33.075Z,28.37
2017-07-22T08:45:34.321Z,28.01
2017-07-22T08:46:35.617Z,26.45
2017-07-22T08:47:36.868Z,25.56
2017-07-22T08:48:38.129Z,26.33
2017-07-22T08:49:39.378Z,25.56
2017-07-22T08:50:40.627Z,24.19
2017-07-22T08:51:41.918Z,23.93
2017-07-22T08:52:43.204Z,23.05
2017-07-22T08:53:44.478Z,23.05
2017-07-22T08:54:45.719Z,23.07
2017-07-22T08:55:46.993Z,22.28
2017-07-22T08:56:48.268Z,22.29
2017-07-22T08:57:49.508Z,21.22
2017-07-22T08:58:50.783Z,21.11
2017-07-22T08:59:52.056Z,21.41
2017-07-22T09:00:53.303Z,22.1
2017-07-22T09:01:54.552Z,22.38
2017-07-22T09:02:55.831Z,22.85
2017-07-22T09:03:57.096Z,22.85
2017-07-22T09:04:58.351Z,22.58
2017-07-22T09:05:59.684Z,22.7
2017-07-22T09:07:00.937Z,21.31
2017-07-22T09:08:02.184Z,20.94
2017-07-22T09:09:03.574Z,19.84
2017-07-22T09:10:04.816Z,20.62
2017-07-22T09:11:06.076Z,21.28
2017-07-22T09:12:07.327Z,23.13
2017-07-22T09:13:08.567Z,23.33
2017-07-22T09:14:09.821Z,23.13
2017-07-22T09:15:11.084Z,24.49
2017-07-22T09:16:12.361Z,23.91
2017-07-22T09:17:13.681Z,24
2017-07-22T09:18:14.982Z,24.07
2017-07-22T09:19:16.237Z,24.27
2017-07-22T09:20:17.496Z,24.19
2017-07-22T09:21:18.746Z,24.19
2017-07-22T09:22:20.066Z,24.31
2017-07-22T09:23:21.351Z,22.26
2017-07-22T09:24:22.676Z,22.28
2017-07-22T09:25:23.923Z,21.48
2017-07-22T09:26:25.168Z,21.46
2017-07-22T09:27:26.422Z,21.76
2017-07-22T09:28:27.758Z,21.55
2017-07-22T09:29:29.037Z,21.85
2017-07-22T09:30:30.277Z,21.05
2017-07-22T09:31:31.524Z,22.14
2017-07-22T09:32:32.776Z,23.3
2017-07-22T09:33:34.030Z,23.88
2017-07-22T09:34:35.393Z,23.79
2017-07-22T09:35:36.676Z,23.57
2017-07-22T09:36:37.931Z,24.45
2017-07-22T09:37:39.202Z,24.55
2017-07-22T09:38:40.431Z,24.66
2017-07-22T09:39:41.740Z,23.18
2017-07-22T09:40:42.976Z,23.29
2017-07-22T09:41:44.242Z,23.29
2017-07-22T09:42:45.585Z,23.19
2017-07-22T09:43:46.842Z,23.01
2017-07-22T09:44:48.112Z,22.7
2017-07-22T09:45:49.360Z,22.62
2017-07-22T09:46:50.617Z,22.44
2017-07-22T09:47:51.951Z,19.97
2017-07-22T09:48:53.178Z,18.71
2017-07-22T09:49:54.440Z,19.2
2017-07-22T09:50:55.697Z,19.79
2017-07-22T09:51:56.968Z,19.89
2017-07-22T09:52:58.235Z,19.98
2017-07-22T09:53:59.498Z,20.67
2017-07-22T09:55:00.759Z,20.68
2017-07-22T09:56:02.006Z,20.81
2017-07-22T09:57:03.273Z,19.74
2017-07-22T09:58:04.534Z,17.76
2017-07-22T09:59:05.845Z,16.89
2017-07-22T10:00:07.094Z,16.39
2017-07-22T10:01:08.344Z,15.51
2017-07-22T10:02:09.599Z,15.33
2017-07-22T10:03:10.861Z,15.34
2017-07-22T10:04:12.132Z,14.04
2017-07-22T10:05:13.466Z,14.74
2017-07-22T10:06:14.779Z,14.64
2017-07-22T10:07:16.028Z,14.54
2017-07-22T10:08:17.301Z,14.55
2017-07-22T10:09:18.562Z,13.74
2017-07-22T10:10:19.827Z,13.73
2017-07-22T10:11:21.238Z,13.54
2017-07-22T10:12:22.383Z,13.52
2017-07-22T10:13:23.670Z,13.62
2017-07-22T10:14:24.927Z,13.82
2017-07-22T10:15:26.181Z,14.12
2017-07-22T10:16:27.445Z,14.92
2017-07-22T10:17:28.709Z,14.92
2017-07-22T10:18:29.961Z,14.23
2017-07-22T10:19:31.227Z,14.54
2017-07-22T10:20:32.471Z,14.34
2017-07-22T10:21:33.845Z,14.84
2017-07-22T10:22:35.085Z,13.94
2017-07-22T10:23:36.340Z,14.56
2017-07-22T10:24:37.605Z,13.04
2017-07-22T10:25:38.879Z,13.65
2017-07-22T10:26:40.123Z,13.64
2017-07-22T10:27:41.370Z,13.43
2017-07-22T10:28:42.627Z,14.24
2017-07-22T10:29:43.973Z,13.14
2017-07-22T10:30:45.244Z,13.34
2017-07-22T10:31:46.644Z,12.93
2017-07-22T10:32:47.900Z,12.02
2017-07-22T10:33:49.156Z,11.53
2017-07-22T10:34:50.416Z,11.14
2017-07-22T10:35:51.690Z,12.24
2017-07-22T10:36:52.949Z,13.83
2017-07-22T10:37:54.204Z,12.92
2017-07-22T10:38:55.455Z,13.7
2017-07-22T10:39:56.705Z,14.29
2017-07-22T10:40:57.971Z,16.27
2017-07-22T10:41:59.237Z,16.26
2017-07-22T10:43:00.508Z,16.66
2017-07-22T10:44:01.765Z,15.96
2017-07-22T10:45:03.005Z,16.65
2017-07-22T10:46:04.255Z,17.33
2017-07-22T10:47:05.541Z,18.21
2017-07-22T10:48:06.783Z,19.48
2017-07-22T10:49:08.038Z,20.75
2017-07-22T10:50:09.337Z,20.63
2017-07-22T10:51:10.585Z,21
2017-07-22T10:52:11.850Z,21.78
2017-07-22T10:53:13.149Z,22.27
2017-07-22T10:54:14.383Z,22.05
2017-07-22T10:55:15.640Z,22.83
2017-07-22T10:56:16.927Z,23.32
2017-07-22T10:57:18.185Z,23.11
2017-07-22T10:58:19.437Z,23.77
2017-07-22T10:59:20.696Z,23.26
2017-07-22T11:00:22.051Z,23.91
2017-07-22T11:01:23.346Z,24.48
2017-07-22T11:02:24.918Z,24.66
2017-07-22T11:03:26.072Z,25.23
2017-07-22T11:04:27.327Z,25.12
2017-07-22T11:05:28.575Z,24.42
2017-07-22T11:06:29.871Z,25.49
2017-07-22T11:07:31.198Z,26.16
2017-07-22T11:08:32.458Z,26.25
2017-07-22T11:09:33.693Z,27.98
2017-07-22T11:10:34.941Z,28.45
2017-07-22T11:11:36.194Z,29.35
2017-07-22T11:12:37.568Z,29.06
2017-07-22T11:13:38.825Z,30.82
2017-07-22T11:14:40.063Z,29.36
2017-07-22T11:15:41.318Z,28.88
2017-07-22T11:16:42.557Z,27.01
2017-07-22T11:17:43.911Z,28.88
2017-07-22T11:18:45.161Z,27.62
2017-07-22T11:19:46.419Z,29.28
2017-07-22T11:20:47.651Z,30.65
2017-07-22T11:21:48.909Z,30.55
2017-07-22T11:22:50.148Z,28.4
2017-07-22T11:23:51.494Z,28.11
2017-07-22T11:24:52.737Z,29.17
2017-07-22T11:25:54.013Z,29.06
2017-07-22T11:26:55.264Z,30.33
2017-07-22T11:27:56.511Z,30.2
2017-07-22T11:28:57.822Z,30.8
2017-07-22T11:29:59.257Z,31
2017-07-22T11:31:00.492Z,32.07
2017-07-22T11:32:01.751Z,32.86
2017-07-22T11:33:03.011Z,33.14
2017-07-22T11:34:04.237Z,32.75
2017-07-22T11:35:05.634Z,33.62
2017-07-22T11:36:06.871Z,33.62
2017-07-22T11:37:08.149Z,33.92
2017-07-22T11:38:09.410Z,32.35
2017-07-22T11:39:10.672Z,34.41
2017-07-22T11:40:11.929Z,33.53
2017-07-22T11:41:13.181Z,33.14
2017-07-22T11:42:14.444Z,31.95
2017-07-22T11:43:15.750Z,32.75
2017-07-22T11:44:17.014Z,33.02
2017-07-22T11:45:18.252Z,33.61
2017-07-22T11:46:19.501Z,32.92
2017-07-22T11:47:20.751Z,32.94
2017-07-22T11:48:22.096Z,32.52
2017-07-22T11:49:23.424Z,33.31
2017-07-22T11:50:24.753Z,33.61
2017-07-22T11:51:25.999Z,34.19
2017-07-22T11:52:27.236Z,32.82
2017-07-22T11:53:28.509Z,32.73
2017-07-22T11:54:29.887Z,33.51
2017-07-22T11:55:31.160Z,34.88
2017-07-22T11:56:32.404Z,34.89
2017-07-22T11:57:33.655Z,33.12
2017-07-22T11:58:34.901Z,33.31
2017-07-22T11:59:36.257Z,34.8
2017-07-22T12:00:37.650Z,32.63
2017-07-22T12:01:38.903Z,31.65
2017-07-22T12:02:40.146Z,31.75
2017-07-22T12:03:41.401Z,32.34
2017-07-22T12:04:42.667Z,32.92
2017-07-22T12:05:43.945Z,34.19
2017-07-22T12:06:45.251Z,33.12
2017-07-22T12:07:46.557Z,32.43
2017-07-22T12:08:47.806Z,32.24
2017-07-22T12:09:49.050Z,32.73
2017-07-22T12:10:50.296Z,32.73
2017-07-22T12:11:51.705Z,33.98
2017-07-22T12:12:53.016Z,32.52
2017-07-22T12:13:54.265Z,32.52
2017-07-22T12:14:55.514Z,32.52
2017-07-22T12:15:56.760Z,32.91
2017-07-22T12:16:58.104Z,32.62
2017-07-22T12:17:59.445Z,32.62
2017-07-22T12:19:00.780Z,33.38
2017-07-22T12:20:01.935Z,33.67
2017-07-22T12:21:03.194Z,33.77
2017-07-22T12:22:04.452Z,33.17
2017-07-22T12:23:05.683Z,32.68
2017-07-22T12:24:06.936Z,32.87
2017-07-22T12:25:08.190Z,33.25
2017-07-22T12:26:09.437Z,33.54
2017-07-22T12:27:10.689Z,33.06
2017-07-22T12:28:11.943Z,33.25
2017-07-22T12:29:13.210Z,33.44
2017-07-22T12:30:14.459Z,32.94
2017-07-22T12:31:15.917Z,33.02
2017-07-22T12:32:17.169Z,33.61
2017-07-22T12:33:18.428Z,33.82
2017-07-22T12:34:19.733Z,33.62
2017-07-22T12:35:20.963Z,33.9
2017-07-22T12:36:22.281Z,34
2017-07-22T12:37:23.532Z,34.68
2017-07-22T12:38:24.771Z,35.18
2017-07-22T12:39:26.020Z,35.18
2017-07-22T12:40:27.258Z,35.69
2017-07-22T12:41:28.507Z,33.53
2017-07-22T12:42:29.834Z,33.44
2017-07-22T12:43:31.077Z,33.82
2017-07-22T12:44:32.325Z,33.54
2017-07-22T12:45:33.585Z,34.52
2017-07-22T12:46:34.822Z,35.51
2017-07-22T12:47:36.069Z,34.24
2017-07-22T12:48:37.338Z,33.85
2017-07-22T12:49:38.571Z,33.83
2017-07-22T12:50:39.857Z,33.73
2017-07-22T12:51:41.106Z,34.32
2017-07-22T12:52:42.354Z,34.22
2017-07-22T12:53:43.632Z,33.64
2017-07-22T12:54:44.888Z,33.06
2017-07-22T12:55:46.236Z,33.25
2017-07-22T12:56:47.480Z,32.86
2017-07-22T12:57:48.728Z,33.83
2017-07-22T12:58:49.964Z,33.44
2017-07-22T12:59:51.207Z,33.62
2017-07-22T13:00:52.489Z,33.23
2017-07-22T13:01:53.745Z,33.62
2017-07-22T13:02:54.994Z,33.53
2017-07-22T13:03:56.242Z,33.51
2017-07-22T13:04:57.491Z,34.79
2017-07-22T13:05:58.737Z,35.06
2017-07-22T13:07:00.083Z,35.16
2017-07-22T13:08:01.327Z,34.99
2017-07-22T13:09:02.588Z,34.5
2017-07-22T13:10:03.856Z,34.4
2017-07-22T13:11:05.083Z,34.11